Last 24 Hours

OV-Red Dog 6200'

Hourly Data | America/Los_Angeles
as of 2/24/24 12:24 AM PST
Date & Time Temp (°F) RH (%) Dew Pt (°F) Wet Bulb (°F) Wind Dir (°) Wind Spd (mph) Wind Gust (mph) Latest Rain (In) New Snow (in) SnowDepth (in) Daily Min Temp (°F) Daily Max Temp (°F) Daily Rain (In)
2/24/24 - 0000 26.5 94 25.0 25.8 W | 281 0.7 3.0 0.00 51.5 134.1 18.2 46.6 0.00
2/23/24 - 2300 27.0 95 25.7 26.4 NW | 304 0.4 2.5 0.00 51.4 140.4 18.2 46.6 0.00
2/23/24 - 2200 28.0 97 27.3 27.6 SW | 235 0.4 1.8 0.00 51.5 152.3 18.2 46.6 0.00
2/23/24 - 2100 29.2 96 28.2 28.8 WSW | 253 0.3 1.7 0.00 51.4 157.6 18.2 46.6 0.00
2/23/24 - 2000 30.5 96 29.6 30.1 WSW | 255 0.7 1.9 0.00 51.4 177.2 18.2 46.6 0.00
2/23/24 - 1900 32.8 91 30.5 31.8 W | 270 1.3 5.4 0.00 51.3 190.6 18.2 46.6 0.00
2/23/24 - 1800 36.6 76 29.8 33.9 W | 276 2.0 5.4 0.00 51.3 199.8 18.2 46.6 0.00
2/23/24 - 1700 37.1 86 33.2 35.5 W | 264 1.8 3.4 0.00 51.4 205.5 18.2 46.6 0.00
2/23/24 - 1600 42.2 73 34.3 38.9 WSW | 257 1.6 2.7 0.00 51.4 206.2 18.2 46.6 0.00
2/23/24 - 1500 42.8 69 33.4 38.9 WSW | 255 1.7 4.5 0.00 51.3 206.9 18.2 46.6 0.00
2/23/24 - 1400 43.4 65 32.2 38.7 WSW | 247 1.5 5.2 0.00 51.4 207.5 18.2 46.6 0.00
2/23/24 - 1300 44.9 53 28.9 38.4 WSW | 238 1.9 6.0 0.00 51.6 203.8 18.2 45.0 0.00
2/23/24 - 1200 43.0 58 29.4 37.5 S | 183 2.1 6.4 0.00 51.1 202.9 18.2 43.2 0.00
2/23/24 - 1100 40.7 61 28.2 35.8 WNW | 283 1.6 5.1 0.00 51.3 203.0 18.2 41.0 0.00
2/23/24 - 1000 32.2 76 25.6 29.8 WSW | 258 0.9 2.4 0.00 51.2 209.7 18.2 32.2 0.00
2/23/24 - 0900 28.3 82 23.7 26.7 WSW | 243 0.4 2.3 0.00 51.3 170.4 18.2 30.3 0.00
2/23/24 - 0800 22.0 91 19.8 21.2 NNW | 345 0.9 3.0 0.00 51.2 178.1 18.2 23.8 0.00
2/23/24 - 0700 18.6 95 17.5 18.2 NNE | 22 0.6 2.3 0.00 51.3 181.2 18.2 23.8 0.00
2/23/24 - 0600 19.0 93 17.4 18.5 S | 169 0.4 1.9 0.00 51.2 178.4 18.7 23.8 0.00
2/23/24 - 0500 19.7 94 18.3 19.2 NNE | 25 0.6 2.1 0.00 51.0 176.7 19.5 23.8 0.00
2/23/24 - 0400 19.8 96 18.8 19.4 N | 350 0.5 2.3 0.00 51.0 174.5 19.8 23.8 0.00
2/23/24 - 0300 20.6 94 19.1 20.1 SSE | 157 0.3 1.7 0.00 50.9 170.5 20.6 23.8 0.00
2/23/24 - 0200 22.0 94 20.5 21.4 NNW | 346 0.2 1.7 0.00 51.0 170.5 21.4 23.8 0.00
2/23/24 - 0100 22.6 95 21.4 22.1 SW | 214 0.2 1.7 0.00 50.9 159.5 22.5 23.8 0.00
2/23/24 - 0000 23.4 96 22.4 23.0 WSW | 249 0.1 1.5 0.00 50.8 154.8 16.5 43.6 0.00
Max 44.9 97 34.3 38.9 - 2.1 6.4 0.00 51.6 209.7 22.5 46.6 0.00
Avg 30.1 85 25.6 28.3 - 0.9 3.1 0.00 - - - - -
Min 18.6 53 17.4 18.2 - 0.1 1.5 0.00 50.8 134.1 16.5 23.8 0.00
Total - - - - - - - 0.00 - - - - -